Time;durP1;ratioP1;P1;durP2;ratioP2;P2;SDS_P1;SDS_P2;PMS_P1;PMS_P2;Temp;Humidity;BMP_temperature;BMP_pressure;BME280_temperature;BME280_humidity;BME280_pressure;Samples;Min_cycle;Max_cycle;Signal;HPM_P1;HPM_P2
2022/02/08 00:00:22;;;;;;;4.47;2.30;;;;;;;7.75;52.03;100640.89;1859366;77;21141;-59
2022/02/08 00:02:54;;;;;;;5.75;1.87;;;;;;;7.79;51.68;100636.42;1860821;77;21071;-59
2022/02/08 00:05:22;;;;;;;3.83;1.65;;;;;;;7.79;51.46;100635.11;1860809;77;21091;-61
2022/02/08 00:07:55;;;;;;;6.05;2.52;;;;;;;7.83;50.88;100622.31;1879393;75;21154;-59
2022/02/08 00:10:26;;;;;;;4.28;1.92;;;;;;;7.86;50.85;100611.28;1906566;75;21045;-61
2022/02/08 00:12:55;;;;;;;5.83;1.95;;;;;;;7.85;50.58;100581.18;1906441;75;21010;-61
2022/02/08 00:15:24;;;;;;;3.98;2.22;;;;;;;7.87;50.13;100601.66;1891693;75;21003;-61
2022/02/08 00:17:53;;;;;;;2.85;1.45;;;;;;;7.91;49.61;100590.16;1877082;76;21043;-59
2022/02/08 00:20:22;;;;;;;3.58;1.62;;;;;;;7.89;50.13;100578.44;1876843;76;21101;-59
2022/02/08 00:22:51;;;;;;;3.62;1.95;;;;;;;7.87;49.58;100572.35;1877124;76;21047;-60
2022/02/08 00:25:19;;;;;;;4.10;2.15;;;;;;;7.89;49.09;100560.52;1879253;75;20999;-62
2022/02/08 00:27:48;;;;;;;3.55;1.77;;;;;;;7.93;49.20;100576.58;1906436;75;21092;-61
2022/02/08 00:30:18;;;;;;;5.28;2.00;;;;;;;7.93;49.21;100564.78;1906697;75;21072;-60
2022/02/08 00:32:47;;;;;;;3.40;2.22;;;;;;;7.92;49.27;100570.91;1904128;75;21021;-60
2022/02/08 00:35:15;;;;;;;3.77;1.62;;;;;;;7.92;48.41;100593.20;1906562;75;21537;-61
2022/02/08 00:37:44;;;;;;;1.92;1.47;;;;;;;7.98;48.57;100595.63;1906405;75;21561;-58
2022/02/08 00:40:13;;;;;;;5.58;1.92;;;;;;;8.00;48.54;100575.45;1906452;75;21073;-58
2022/02/08 00:42:43;;;;;;;4.85;2.35;;;;;;;8.04;47.74;100577.10;1904307;75;21538;-60
2022/02/08 00:45:30;;;;;;;2.92;2.00;;;;;;;8.05;47.49;100603.71;1906415;75;21479;-60
2022/02/08 00:47:57;;;;;;;4.22;1.95;;;;;;;8.06;47.83;100572.66;1903424;75;21072;-59
2022/02/08 00:50:21;;;;;;;3.83;2.00;;;;;;;8.04;47.77;100570.55;1905810;75;21037;-59
2022/02/08 00:52:50;;;;;;;3.10;1.62;;;;;;;8.05;47.66;100568.77;1902884;75;21463;-60
2022/02/08 00:55:19;;;;;;;3.85;1.70;;;;;;;8.04;48.14;100569.66;1876963;76;21142;-61
2022/02/08 00:57:47;;;;;;;5.03;1.55;;;;;;;7.97;48.52;100562.47;1876980;76;21586;-62
2022/02/08 01:00:17;;;;;;;4.35;2.08;;;;;;;7.95;48.41;100580.44;1877052;76;21086;-60
2022/02/08 01:02:46;;;;;;;2.77;2.02;;;;;;;7.99;47.75;100568.52;1877078;76;21124;-59
2022/02/08 01:05:16;;;;;;;5.80;2.25;;;;;;;8.02;47.59;100597.70;1878941;75;21090;-60
2022/02/08 01:07:45;;;;;;;5.15;1.80;;;;;;;8.03;47.84;100567.50;1876920;76;21091;-60
2022/02/08 01:10:17;;;;;;;5.33;1.80;;;;;;;8.04;47.40;100604.64;1876862;76;21162;-59
2022/02/08 01:12:47;;;;;;;4.03;1.62;;;;;;;8.09;47.16;100567.30;1876932;76;21097;-60
2022/02/08 01:15:15;;;;;;;2.50;1.60;;;;;;;8.11;46.93;100566.83;1876801;75;21043;-59
2022/02/08 01:17:47;;;;;;;4.92;1.82;;;;;;;8.11;46.91;100560.27;1877261;76;21133;-62
2022/02/08 01:20:19;;;;;;;5.62;2.37;;;;;;;8.12;46.98;100558.04;1876919;76;21555;-59
2022/02/08 01:22:45;;;;;;;4.72;1.72;;;;;;;8.14;46.83;100575.04;1901271;75;21048;-60
2022/02/08 01:25:21;;;;;;;5.83;1.70;;;;;;;8.15;46.93;100570.18;1906400;75;21138;-59
2022/02/08 01:27:53;;;;;;;3.37;1.57;;;;;;;8.20;46.27;100573.52;1905605;75;21134;-60
2022/02/08 01:30:43;;;;;;;2.75;1.37;;;;;;;8.24;46.10;100567.73;1906057;75;21041;-59
2022/02/08 01:35:53;;;;;;;7.58;1.62;;;;;;;8.32;45.85;100549.99;1876717;76;21039;-59
2022/02/08 01:38:09;;;;;;;3.67;1.30;;;;;;;8.35;45.20;100567.39;1876886;76;21039;-59
2022/02/08 01:46:24;;;;;;;4.25;1.65;;;;;;;8.41;44.55;100543.13;1926921;73;21111;-61
2022/02/08 01:48:49;;;;;;;3.58;1.60;;;;;;;8.46;44.29;100529.41;1923657;74;21051;-60
2022/02/08 01:51:11;;;;;;;5.53;2.25;;;;;;;8.50;43.45;100523.17;1925351;74;21060;-57
2022/02/08 01:53:40;;;;;;;4.47;1.85;;;;;;;8.54;42.81;100551.91;1926607;74;21473;-58
2022/02/08 01:56:09;;;;;;;2.33;1.62;;;;;;;8.60;42.92;100528.11;1936110;73;21072;-59
2022/02/08 01:58:38;;;;;;;2.05;1.25;;;;;;;8.63;42.19;100510.48;1954327;73;21539;-59
2022/02/08 02:01:14;;;;;;;4.17;1.57;;;;;;;8.67;41.88;100503.38;1939561;74;21077;-60
2022/02/08 02:03:44;;;;;;;3.75;1.77;;;;;;;8.67;42.36;100519.12;1954540;73;21009;-59
2022/02/08 02:06:13;;;;;;;1.92;1.30;;;;;;;8.74;41.17;100496.97;1941580;74;21506;-59
2022/02/08 02:08:42;;;;;;;2.98;1.50;;;;;;;8.79;41.24;100474.03;1941609;74;21029;-59
2022/02/08 02:11:12;;;;;;;3.40;1.42;;;;;;;8.79;40.81;100489.79;1914147;73;21085;-59
2022/02/08 02:13:45;;;;;;;2.45;1.65;;;;;;;8.79;41.29;100474.03;1900949;75;21143;-59
2022/02/08 02:16:45;;;;;;;4.03;2.00;;;;;;;8.82;40.02;100452.94;1900959;74;21101;-58
2022/02/08 02:18:54;;;;;;;5.62;1.57;;;;;;;8.86;40.79;100471.59;1896215;75;21037;-57
2022/02/08 02:21:24;;;;;;;3.40;1.50;;;;;;;8.88;39.28;100445.29;1936020;73;21526;-59
2022/02/08 02:23:53;;;;;;;3.22;1.20;;;;;;;8.97;39.49;100457.23;1954446;73;21482;-58
2022/02/08 02:26:24;;;;;;;2.08;1.20;;;;;;;8.98;39.57;100436.60;1941323;74;21507;-58
2022/02/08 02:28:53;;;;;;;5.97;1.87;;;;;;;8.96;40.10;100429.25;1941583;73;21459;-59
2022/02/08 02:31:22;;;;;;;6.55;2.10;;;;;;;8.99;39.81;100421.27;1954425;73;21044;-59
2022/02/08 02:33:52;;;;;;;3.05;1.67;;;;;;;9.06;38.67;100414.41;1941660;74;21420;-58
2022/02/08 02:36:21;;;;;;;2.65;1.85;;;;;;;9.10;39.17;100411.67;1953370;73;21478;-58
2022/02/08 02:38:50;;;;;;;2.37;1.47;;;;;;;9.08;39.45;100394.19;1941575;73;21533;-57
2022/02/08 02:41:19;;;;;;;3.83;1.70;;;;;;;9.06;39.38;100404.36;1954389;73;21541;-57
2022/02/08 02:43:50;;;;;;;2.15;1.15;;;;;;;9.10;39.11;100388.88;1941520;73;21140;-59
2022/02/08 02:46:21;;;;;;;2.65;1.40;;;;;;;9.15;38.81;100396.13;1941199;73;21502;-57
2022/02/08 02:48:49;;;;;;;3.90;1.30;;;;;;;9.20;38.50;100377.55;1932137;74;21119;-59
2022/02/08 02:51:18;;;;;;;2.27;1.35;;;;;;;9.17;38.67;100374.59;1932814;74;21575;-58
2022/02/08 02:53:48;;;;;;;1.47;1.12;;;;;;;9.18;37.72;100372.34;1932031;74;21124;-59
2022/02/08 02:56:18;;;;;;;1.98;1.30;;;;;;;9.32;37.38;100347.33;1931999;74;21027;-58
2022/02/08 02:58:47;;;;;;;2.70;1.30;;;;;;;9.33;37.43;100363.47;1932455;74;21509;-58
2022/02/08 03:01:28;;;;;;;2.60;1.20;;;;;;;9.36;37.26;100355.48;1931778;73;21486;-60
2022/02/08 03:04:08;;;;;;;4.55;1.50;;;;;;;9.38;37.09;100356.27;1931577;74;21121;-60
2022/02/08 03:17:54;;;;;;;1.70;1.10;;;;;;;9.38;39.04;100346.60;1944583;73;21082;-58
2022/02/08 03:20:08;;;;;;;2.67;1.27;;;;;;;9.37;39.21;100316.44;1944257;73;21058;-60
2022/02/08 03:22:37;;;;;;;2.35;1.55;;;;;;;9.38;38.48;100323.42;1945049;73;21032;-59
2022/02/08 03:25:06;;;;;;;3.02;1.60;;;;;;;9.43;38.28;100334.61;1939118;73;21224;-59
2022/02/08 03:27:36;;;;;;;1.62;1.12;;;;;;;9.41;38.46;100284.73;1903427;75;21056;-59
2022/02/08 03:30:06;;;;;;;2.83;1.60;;;;;;;9.45;38.30;100328.83;1903589;75;21467;-59
2022/02/08 03:32:35;;;;;;;2.55;1.60;;;;;;;9.46;38.41;100353.73;1914224;73;20987;-59
2022/02/08 03:35:06;;;;;;;2.52;1.55;;;;;;;9.49;38.56;100322.52;1932670;74;21497;-61
2022/02/08 03:37:35;;;;;;;3.40;1.35;;;;;;;9.46;38.91;100342.34;1932605;73;20992;-60
2022/02/08 03:40:12;;;;;;;2.70;1.30;;;;;;;9.49;38.57;100374.23;1932492;73;21102;-61
2022/02/08 03:42:45;;;;;;;1.80;1.20;;;;;;;9.54;38.61;100367.88;1948642;73;21466;-59
2022/02/08 03:45:12;;;;;;;2.27;1.50;;;;;;;9.58;38.45;100377.34;1949954;73;21134;-58
2022/02/08 03:47:41;;;;;;;1.70;1.25;;;;;;;9.62;37.95;100323.71;1958098;73;21470;-59
2022/02/08 03:50:11;;;;;;;2.47;1.20;;;;;;;9.66;37.47;100393.67;1952019;73;21048;-58
2022/02/08 03:52:40;;;;;;;2.80;1.10;;;;;;;9.74;37.67;100344.71;1952055;73;21529;-59
2022/02/08 03:55:10;;;;;;;3.85;1.30;;;;;;;9.77;37.25;100374.80;1949754;73;21631;-59
2022/02/08 03:57:40;;;;;;;2.15;1.07;;;;;;;9.79;37.62;100369.48;1932967;74;21099;-59
2022/02/08 04:00:11;;;;;;;4.55;1.80;;;;;;;9.78;37.32;100363.84;1933997;73;21132;-61
2022/02/08 04:02:49;;;;;;;2.72;1.30;;;;;;;9.78;37.34;100345.44;1949384;73;21060;-60
2022/02/08 04:05:25;;;;;;;2.60;1.60;;;;;;;9.82;36.90;100371.52;1951368;73;21037;-58
2022/02/08 04:07:57;;;;;;;3.70;1.20;;;;;;;9.85;37.40;100383.23;1951001;73;21110;-60
2022/02/08 04:10:22;;;;;;;3.70;1.40;;;;;;;9.85;37.33;100346.89;1949438;73;21049;-58
2022/02/08 04:13:02;;;;;;;2.72;1.40;;;;;;;9.86;37.55;100365.67;1933154;73;21102;-57
2022/02/08 04:15:34;;;;;;;4.80;1.55;;;;;;;9.86;37.21;100388.03;1911417;75;21021;-57
2022/02/08 04:34:19;;;;;;;2.55;1.30;;;;;;;9.89;37.78;100437.88;1893549;75;21491;-58
2022/02/08 04:39:35;;;;;;;1.77;1.27;;;;;;;9.97;37.86;100386.27;1914433;75;21068;-58
2022/02/08 04:42:00;;;;;;;4.53;1.90;;;;;;;10.01;37.95;100398.36;1914518;74;21100;-59
2022/02/08 04:49:20;;;;;;;1.90;1.32;;;;;;;10.02;38.16;100377.27;1926455;74;21082;-59
2022/02/08 04:51:53;;;;;;;1.87;1.22;;;;;;;10.04;38.20;100405.67;1926453;74;21011;-59
2022/02/08 04:54:31;;;;;;;3.55;1.82;;;;;;;10.08;37.84;100380.09;1922221;73;21101;-59
2022/02/08 04:57:45;;;;;;;5.20;1.10;;;;;;;10.09;37.92;100434.87;1903156;73;21271;-58
2022/02/08 05:43:48;;;;;;;2.60;1.12;;;;;;;10.39;37.87;100449.39;1900812;74;21021;-58
2022/02/08 05:48:45;;;;;;;4.10;1.52;;;;;;;10.41;38.53;100454.13;1931057;73;21389;-59
2022/02/08 05:51:21;;;;;;;1.85;1.00;;;;;;;10.39;38.74;100473.09;1925437;74;21538;-59
2022/02/08 05:56:12;;;;;;;2.80;1.25;;;;;;;10.33;39.25;100462.83;1926452;74;21059;-59
2022/02/08 05:58:42;;;;;;;3.35;1.47;;;;;;;10.32;39.43;100471.63;1927297;73;21198;-60
2022/02/08 06:01:11;;;;;;;1.85;0.93;;;;;;;10.34;39.00;100454.47;1930208;73;21586;-58
2022/02/08 06:03:42;;;;;;;1.45;0.95;;;;;;;10.34;39.38;100479.00;1941210;73;21504;-60
2022/02/08 06:06:11;;;;;;;6.62;1.32;;;;;;;10.34;39.65;100471.57;1946609;73;21602;-60
2022/02/08 06:08:40;;;;;;;1.82;1.20;;;;;;;10.32;39.61;100472.95;1898188;75;21005;-58
2022/02/08 06:11:15;;;;;;;2.65;1.20;;;;;;;10.32;39.66;100469.47;1898103;75;21157;-62
2022/02/08 06:13:39;;;;;;;1.45;1.05;;;;;;;10.32;39.57;100469.47;1897329;75;21053;-63
2022/02/08 06:16:15;;;;;;;3.87;1.00;;;;;;;10.30;39.73;100476.55;1898158;75;21165;-63
2022/02/08 06:18:38;;;;;;;3.95;1.40;;;;;;;10.27;39.97;100486.72;1908035;73;21011;-61
2022/02/08 06:21:07;;;;;;;3.10;1.07;;;;;;;10.25;40.33;100475.41;1951540;73;21456;-62
2022/02/08 06:23:35;;;;;;;4.92;1.30;;;;;;;10.22;40.33;100486.08;1951371;73;21137;-63
2022/02/08 06:26:05;;;;;;;3.60;1.40;;;;;;;10.19;40.58;100480.94;1951530;73;21128;-64
2022/02/08 06:28:33;;;;;;;4.40;1.40;;;;;;;10.20;40.37;100483.51;1951433;73;21527;-64
2022/02/08 06:31:02;;;;;;;2.83;1.27;;;;;;;10.21;39.96;100482.56;1947465;73;21521;-64
2022/02/08 06:33:32;;;;;;;7.28;1.62;;;;;;;10.22;40.39;100475.55;1902160;73;21181;-63
2022/02/08 06:36:01;;;;;;;2.17;0.93;;;;;;;10.21;40.12;100483.04;1895674;73;21040;-63
2022/02/08 06:38:29;;;;;;;4.53;1.60;;;;;;;10.22;40.27;100496.61;1901624;73;20987;-63
2022/02/08 06:40:58;;;;;;;7.72;1.52;;;;;;;10.20;40.62;100505.02;1945473;74;21093;-63
2022/02/08 06:43:30;;;;;;;2.47;1.00;;;;;;;10.19;40.99;100496.25;1945493;74;21528;-63
2022/02/08 06:46:00;;;;;;;2.10;1.10;;;;;;;10.19;40.95;100470.41;1945422;73;21035;-64
2022/02/08 06:48:28;;;;;;;6.28;1.10;;;;;;;10.21;40.62;100494.41;1945154;73;21079;-64
2022/02/08 06:50:57;;;;;;;5.65;1.52;;;;;;;10.25;40.84;100491.19;1945522;74;21105;-63
2022/02/08 06:53:26;;;;;;;7.75;1.98;;;;;;;10.26;41.16;100482.86;1945495;74;21414;-67
2022/02/08 06:56:01;;;;;;;6.25;1.87;;;;;;;10.28;40.78;100495.49;1920754;74;20992;-64
2022/02/08 06:58:36;;;;;;;3.22;1.35;;;;;;;10.31;40.89;100488.36;1895580;73;21161;-62
2022/02/08 07:01:02;;;;;;;3.22;1.45;;;;;;;10.37;40.80;100487.24;1878954;76;21045;-61
2022/02/08 07:03:30;;;;;;;5.12;2.08;;;;;;;10.41;41.13;100479.61;1937605;73;21025;-63
2022/02/08 07:05:59;;;;;;;29.50;8.28;;;;;;;10.41;41.24;100481.77;1954483;73;21106;-64
2022/02/08 07:08:29;;;;;;;114.25;27.80;;;;;;;10.44;41.24;100475.53;1941578;73;21024;-63
2022/02/08 07:10:57;;;;;;;98.97;22.87;;;;;;;10.46;41.11;100472.81;1941617;74;21510;-63
2022/02/08 07:13:27;;;;;;;17.95;6.28;;;;;;;10.50;41.37;100474.42;1941504;73;21143;-63
2022/02/08 07:15:56;;;;;;;73.55;19.82;;;;;;;10.52;41.41;100480.47;1941686;74;21057;-63
2022/02/08 07:18:24;;;;;;;44.50;11.75;;;;;;;10.54;41.08;100482.57;1941717;74;21040;-63
2022/02/08 07:20:53;;;;;;;5.87;2.33;;;;;;;10.59;41.51;100482.77;1941674;74;21072;-63
2022/02/08 07:23:22;;;;;;;6.42;2.60;;;;;;;10.62;41.66;100489.66;1954496;73;21079;-63
2022/02/08 07:25:53;;;;;;;10.63;3.15;;;;;;;10.63;41.33;100481.70;1954627;73;21036;-63
2022/02/08 07:28:21;;;;;;;5.00;2.05;;;;;;;10.67;41.35;100476.31;1941608;73;21119;-63
2022/02/08 07:30:56;;;;;;;9.08;2.17;;;;;;;10.69;41.27;100487.16;1941678;74;21487;-63
2022/02/08 07:33:20;;;;;;;17.30;5.33;;;;;;;10.74;41.01;100475.97;1953256;73;21028;-63
2022/02/08 07:36:04;;;;;;;48.05;12.43;;;;;;;10.81;41.00;100471.30;1954718;73;21581;-63
2022/02/08 07:38:31;;;;;;;32.90;7.83;;;;;;;10.86;40.97;100473.72;1951719;73;21005;-63
2022/02/08 07:43:25;;;;;;;16.15;4.40;;;;;;;10.94;41.10;100473.78;1954474;73;21032;-63
2022/02/08 07:45:58;;;;;;;26.50;9.90;;;;;;;10.99;40.81;100478.39;1952631;73;21088;-63
2022/02/08 07:48:27;;;;;;;19.60;7.00;;;;;;;11.04;40.95;100483.43;1941607;73;21084;-63
2022/02/08 07:50:57;;;;;;;10.90;3.60;;;;;;;11.07;40.81;100485.94;1954455;73;21033;-63
2022/02/08 07:53:27;;;;;;;9.48;2.87;;;;;;;11.10;40.90;100490.20;1954705;73;21029;-63
2022/02/08 07:55:57;;;;;;;9.40;3.00;;;;;;;11.12;40.98;100485.28;1941789;74;21013;-63
2022/02/08 07:58:27;;;;;;;6.30;2.52;;;;;;;11.13;41.35;100494.02;1954479;73;21416;-63
2022/02/08 08:00:55;;;;;;;8.58;1.75;;;;;;;11.13;41.82;100488.28;1941717;74;21025;-63
2022/02/08 08:03:24;;;;;;;6.10;1.67;;;;;;;11.13;42.06;100492.71;1954406;73;21060;-63
2022/02/08 08:05:53;;;;;;;7.67;2.00;;;;;;;11.13;42.38;100499.30;1954550;73;21092;-63
2022/02/08 08:08:21;;;;;;;12.58;2.30;;;;;;;11.14;42.81;100496.59;1954583;73;21033;-63
2022/02/08 08:10:50;;;;;;;7.37;2.08;;;;;;;11.15;43.04;100493.49;1941800;74;21033;-63
2022/02/08 08:13:21;;;;;;;4.05;2.00;;;;;;;11.18;43.31;100492.89;1954471;73;21048;-63
2022/02/08 08:15:56;;;;;;;6.58;2.20;;;;;;;11.24;43.49;100488.27;1941621;74;21029;-64
2022/02/08 08:18:44;;;;;;;8.70;2.75;;;;;;;11.26;43.01;100493.85;1953416;73;21539;-63
2022/02/08 08:20:56;;;;;;;4.15;2.08;;;;;;;11.31;43.46;100505.52;1938149;74;21065;-62
2022/02/08 08:23:25;;;;;;;6.17;2.55;;;;;;;11.36;43.28;100475.38;1954668;73;21090;-63
2022/02/08 08:25:54;;;;;;;8.13;2.35;;;;;;;11.43;43.42;100508.05;1941642;74;21479;-62
2022/02/08 08:28:23;;;;;;;8.70;2.55;;;;;;;11.44;43.64;100504.50;1954375;73;21228;-63
2022/02/08 08:30:51;;;;;;;7.92;3.02;;;;;;;11.46;43.88;100502.16;1941668;74;21037;-63
2022/02/08 08:33:20;;;;;;;5.22;1.98;;;;;;;11.42;44.02;100498.41;1954482;73;21471;-63
2022/02/08 08:35:49;;;;;;;10.53;2.90;;;;;;;11.43;44.21;100489.11;1941631;74;21033;-63
2022/02/08 08:38:19;;;;;;;11.43;2.27;;;;;;;11.49;44.50;100479.62;1941681;74;21025;-63
2022/02/08 08:41:06;;;;;;;12.13;3.17;;;;;;;11.54;44.54;100481.55;1954405;73;21029;-63
2022/02/08 08:43:41;;;;;;;13.32;2.30;;;;;;;11.61;44.54;100481.28;1950954;73;21130;-63
2022/02/08 08:48:47;;;;;;;9.10;3.00;;;;;;;11.72;44.33;100477.19;1941620;74;21135;-63
2022/02/08 08:51:19;;;;;;;5.25;2.62;;;;;;;11.75;43.47;100478.85;1947198;73;21060;-63
2022/02/08 08:53:33;;;;;;;8.18;2.45;;;;;;;11.76;43.28;100466.03;1949084;73;21435;-63
2022/02/08 08:56:01;;;;;;;5.92;2.12;;;;;;;11.76;43.28;100460.28;1954607;73;21056;-63
2022/02/08 08:58:31;;;;;;;4.80;2.05;;;;;;;11.85;43.17;100478.78;1954476;73;21029;-62
2022/02/08 09:01:00;;;;;;;10.50;2.67;;;;;;;11.89;42.71;100464.50;1954593;73;21168;-63
2022/02/08 09:03:28;;;;;;;7.35;2.70;;;;;;;11.97;42.50;100463.71;1954456;73;21110;-63
2022/02/08 09:05:57;;;;;;;8.85;2.85;;;;;;;12.09;42.66;100470.63;1954325;73;21026;-63
2022/02/08 09:08:30;;;;;;;12.15;2.90;;;;;;;12.25;42.45;100444.33;1954544;73;21029;-63
2022/02/08 09:11:05;;;;;;;7.90;3.72;;;;;;;12.29;42.46;100467.84;1953984;73;21036;-63
2022/02/08 09:13:34;;;;;;;5.83;1.87;;;;;;;12.34;42.82;100447.34;1952614;73;21521;-63
2022/02/08 09:19:00;;;;;;;9.80;2.65;;;;;;;12.60;43.40;100454.84;1954729;73;21033;-64
2022/02/08 09:29:10;;;;;;;5.45;2.05;;;;;;;13.45;42.02;100449.41;1954379;73;21004;-63
2022/02/08 09:31:38;;;;;;;9.43;2.60;;;;;;;13.08;42.91;100407.79;1954440;73;21110;-63
2022/02/08 09:34:07;;;;;;;7.12;3.12;;;;;;;12.75;43.75;100428.48;1954647;73;20997;-63
2022/02/08 09:36:36;;;;;;;6.70;2.25;;;;;;;12.47;44.72;100430.41;1954631;73;21126;-62
2022/02/08 09:39:04;;;;;;;7.22;1.77;;;;;;;12.35;45.28;100431.88;1954575;73;21087;-63
2022/02/08 09:41:35;;;;;;;10.30;2.95;;;;;;;12.28;45.56;100421.27;1954323;73;21060;-62
2022/02/08 09:44:05;;;;;;;6.05;2.70;;;;;;;12.07;46.13;100434.23;1954414;73;21065;-63
2022/02/08 09:46:37;;;;;;;4.20;2.17;;;;;;;11.89;46.81;100435.48;1954546;73;21102;-63
2022/02/08 09:49:06;;;;;;;9.00;2.83;;;;;;;11.78;47.25;100427.24;1954548;73;21032;-63
2022/02/08 09:51:38;;;;;;;9.73;3.42;;;;;;;11.67;47.80;100428.23;1953954;73;21580;-63
2022/02/08 09:54:05;;;;;;;5.47;2.62;;;;;;;11.59;48.46;100420.23;1941387;73;21546;-63
2022/02/08 09:56:33;;;;;;;3.40;2.17;;;;;;;11.52;48.71;100426.72;1954562;73;21028;-62
2022/02/08 09:59:04;;;;;;;6.08;2.80;;;;;;;11.45;49.19;100417.86;1941645;74;21017;-63
2022/02/08 10:01:32;;;;;;;7.00;2.40;;;;;;;11.39;49.55;100425.61;1954535;73;21114;-62
2022/02/08 10:04:02;;;;;;;7.05;2.55;;;;;;;11.28;49.95;100414.72;1954478;73;21032;-63
2022/02/08 10:06:32;;;;;;;7.53;2.72;;;;;;;11.21;50.13;100419.41;1941769;73;21099;-63
2022/02/08 10:09:11;;;;;;;8.50;2.40;;;;;;;11.15;50.31;100408.69;1954440;73;21036;-63
2022/02/08 10:11:55;;;;;;;6.80;2.47;;;;;;;11.08;50.41;100415.17;1941586;74;21510;-63
2022/02/08 10:18:58;;;;;;;6.28;2.00;;;;;;;11.03;50.60;100412.36;1954264;73;21122;-63
2022/02/08 10:22:40;;;;;;;33.42;7.65;;;;;;;10.88;50.76;100386.27;1941541;74;21018;-63
2022/02/08 10:25:23;;;;;;;20.10;6.37;;;;;;;10.84;50.61;100381.59;1954278;73;21068;-63
2022/02/08 10:27:49;;;;;;;34.40;11.30;;;;;;;10.84;50.62;100377.64;1951748;73;21486;-64
2022/02/08 10:38:49;;;;;;;13.00;4.85;;;;;;;10.76;50.89;100363.52;1954414;73;21008;-63
2022/02/08 10:41:24;;;;;;;14.25;4.00;;;;;;;10.78;50.78;100372.20;1954399;73;21049;-64
2022/02/08 10:44:07;;;;;;;7.53;2.87;;;;;;;10.79;50.65;100373.92;1941511;74;21020;-64
2022/02/08 10:46:37;;;;;;;6.33;2.10;;;;;;;10.82;50.03;100357.95;1941582;74;21056;-63
2022/02/08 10:49:14;;;;;;;6.10;3.00;;;;;;;10.87;49.99;100357.76;1954393;73;21134;-64
2022/02/08 10:51:48;;;;;;;8.08;3.00;;;;;;;10.93;49.64;100355.30;1941545;74;21017;-64
2022/02/08 10:54:23;;;;;;;8.28;3.00;;;;;;;10.97;49.44;100368.71;1962821;73;21573;-64
2022/02/08 10:56:51;;;;;;;8.20;2.58;;;;;;;11.00;49.21;100371.22;1963039;73;21072;-63
2022/02/08 10:59:31;;;;;;;4.78;2.40;;;;;;;11.00;49.28;100367.27;1963883;73;21462;-63
2022/02/08 11:02:14;;;;;;;3.35;2.20;;;;;;;11.01;49.16;100380.81;1961100;73;21439;-63
2022/02/08 11:05:00;;;;;;;5.33;2.35;;;;;;;11.01;49.35;100380.81;1871558;76;21034;-64
2022/02/08 11:13:14;;;;;;;8.45;2.80;;;;;;;10.97;50.28;100374.86;1954861;73;21001;-63
2022/02/08 11:15:43;;;;;;;8.08;2.87;;;;;;;10.99;50.27;100395.40;1951215;73;21052;-63
2022/02/08 11:21:00;;;;;;;8.33;3.10;;;;;;;10.97;50.69;100405.59;1954700;73;21069;-63
2022/02/08 11:23:32;;;;;;;4.55;2.42;;;;;;;10.94;51.18;100392.59;1952246;73;21032;-63
2022/02/08 11:25:53;;;;;;;5.12;2.42;;;;;;;10.87;51.50;100395.95;1951812;73;21498;-63
2022/02/08 11:28:35;;;;;;;5.92;2.40;;;;;;;10.82;51.92;100409.78;1954714;73;21060;-62
2022/02/08 11:39:03;;;;;;;7.70;2.67;;;;;;;10.72;53.42;100410.67;1954699;73;21001;-62
2022/02/08 11:58:12;;;;;;;5.45;2.42;;;;;;;10.13;57.97;100437.79;1954521;73;21127;-64
2022/02/08 12:00:37;;;;;;;9.18;2.92;;;;;;;10.08;58.47;100434.48;1949936;73;21044;-63
2022/02/08 12:03:16;;;;;;;3.47;1.80;;;;;;;9.99;58.80;100432.63;1937638;74;21048;-63
2022/02/08 12:08:15;;;;;;;5.37;2.42;;;;;;;9.96;58.60;100441.09;1954711;73;21040;-63
2022/02/08 12:10:59;;;;;;;6.45;2.30;;;;;;;9.98;58.45;100424.35;1954550;73;21473;-63
2022/02/08 12:13:52;;;;;;;9.30;2.70;;;;;;;9.99;58.35;100437.88;1938948;74;21049;-63
2022/02/08 12:28:02;;;;;;;7.05;2.55;;;;;;;9.98;58.22;100438.81;1941696;74;21029;-64
2022/02/08 12:28:22;;;;;;;4.00;2.45;;;;;;;9.95;58.50;100446.83;1918338;74;21041;-63
2022/02/08 12:49:03;;;;;;;5.20;2.65;;;;;;;9.65;62.12;100458.13;1954466;73;21040;-64
2022/02/08 12:56:40;;;;;;;3.55;2.22;;;;;;;9.37;63.25;100470.16;1964463;73;21052;-64
2022/02/08 12:59:15;;;;;;;5.00;2.40;;;;;;;9.29;64.68;100473.09;1962511;73;21110;-64
2022/02/08 14:21:11;;;;;;;5.12;2.37;;;;;;;8.47;69.61;100489.16;1954430;73;21052;-63
2022/02/08 14:37:14;;;;;;;5.12;2.80;;;;;;;8.32;70.60;100489.66;1954528;73;21044;-64
2022/02/08 15:09:34;;;;;;;9.08;5.40;;;;;;;8.34;72.36;100504.01;1954363;73;21009;-64
2022/02/08 15:12:15;;;;;;;8.20;4.70;;;;;;;8.33;72.37;100507.09;1953882;73;21497;-64
2022/02/08 15:14:58;;;;;;;6.30;3.55;;;;;;;8.34;72.43;100508.82;1954191;73;21106;-64
2022/02/08 15:17:22;;;;;;;13.15;8.05;;;;;;;8.36;72.91;100503.06;1953144;73;21580;-65
2022/02/08 15:19:52;;;;;;;4.22;3.10;;;;;;;8.37;72.45;100506.08;1954381;73;21109;-64
2022/02/08 15:22:21;;;;;;;5.17;2.90;;;;;;;8.39;72.68;100506.03;1954372;73;21090;-64
2022/02/08 15:24:49;;;;;;;9.13;4.28;;;;;;;8.40;72.61;100516.48;1954317;73;21499;-64
2022/02/08 15:27:21;;;;;;;12.70;7.53;;;;;;;8.41;72.52;100514.70;1954254;73;21475;-64
2022/02/08 15:29:54;;;;;;;10.80;4.62;;;;;;;8.45;72.46;100518.53;1954372;73;21032;-63
2022/02/08 15:32:19;;;;;;;14.43;7.67;;;;;;;8.46;72.56;100514.98;1953709;73;21036;-64
2022/02/08 15:34:48;;;;;;;14.07;6.55;;;;;;;8.45;72.46;100519.84;1954459;73;21578;-64
2022/02/08 15:37:17;;;;;;;21.35;9.88;;;;;;;8.44;72.60;100521.20;1954596;73;21098;-64
2022/02/08 15:39:45;;;;;;;4.35;2.83;;;;;;;8.43;72.61;100509.86;1954416;73;21109;-65
2022/02/08 15:42:14;;;;;;;4.70;2.45;;;;;;;8.43;72.80;100516.41;1954493;73;21455;-64
2022/02/08 15:44:47;;;;;;;7.80;4.53;;;;;;;8.44;72.91;100514.17;1954446;73;21475;-64
2022/02/08 15:47:13;;;;;;;6.33;3.27;;;;;;;8.44;72.84;100495.81;1953969;73;21040;-64
2022/02/08 15:49:54;;;;;;;7.40;3.22;;;;;;;8.48;72.54;100501.38;1954445;73;21545;-64
2022/02/08 15:54:51;;;;;;;7.85;3.08;;;;;;;8.53;72.18;100502.98;1919395;73;21067;-64
2022/02/08 15:57:48;;;;;;;6.62;2.70;;;;;;;8.57;72.23;100524.27;1944104;73;21172;-64
2022/02/08 16:05:51;;;;;;;7.78;2.75;;;;;;;8.78;71.50;100523.53;1941764;74;21080;-64
2022/02/08 16:08:11;;;;;;;5.78;2.45;;;;;;;8.86;71.29;100533.30;1949541;73;21048;-64
2022/02/08 16:10:44;;;;;;;6.95;3.05;;;;;;;8.91;71.12;100534.89;1940365;74;21041;-63
2022/02/08 16:13:29;;;;;;;3.62;2.67;;;;;;;8.96;70.92;100539.53;1951613;73;21068;-63
2022/02/08 16:16:08;;;;;;;6.78;3.22;;;;;;;8.98;70.73;100547.78;1938587;74;21523;-64
2022/02/08 16:18:34;;;;;;;9.38;3.12;;;;;;;9.00;70.68;100541.13;1950281;73;21036;-64
2022/02/08 16:21:08;;;;;;;6.60;2.80;;;;;;;9.00;70.64;100549.89;1940339;74;21069;-64
2022/02/08 16:23:54;;;;;;;8.33;2.92;;;;;;;9.02;70.72;100544.12;1951289;73;21106;-64
2022/02/08 16:53:10;;;;;;;7.03;3.27;;;;;;;9.04;70.37;100549.33;1913765;74;21510;-62
2022/02/08 16:55:49;;;;;;;10.75;5.15;;;;;;;9.03;70.28;100558.95;1905652;75;20995;-62
2022/02/08 16:58:28;;;;;;;5.62;3.12;;;;;;;9.01;70.43;100565.19;1908433;75;21117;-61
2022/02/08 17:01:07;;;;;;;4.42;2.77;;;;;;;8.99;70.44;100559.13;1908668;75;21015;-57
2022/02/08 17:03:28;;;;;;;7.60;3.80;;;;;;;8.98;70.62;100558.72;1878291;76;21086;-57
2022/02/08 17:05:54;;;;;;;5.92;3.00;;;;;;;8.96;70.66;100540.85;1881086;76;21055;-57
2022/02/08 17:08:25;;;;;;;5.97;2.87;;;;;;;8.95;70.63;100541.78;1881133;76;21175;-57
2022/02/08 17:10:58;;;;;;;5.08;2.92;;;;;;;8.95;70.64;100547.03;1881116;76;21046;-57
2022/02/08 17:13:40;;;;;;;5.70;2.72;;;;;;;8.94;70.65;100549.24;1881140;76;21129;-56
2022/02/08 17:16:10;;;;;;;4.80;2.85;;;;;;;8.96;70.65;100548.73;1881033;76;21136;-56
2022/02/08 17:18:50;;;;;;;;;;;;;;;8.95;70.76;100561.47;1884106;76;21132;-61
2022/02/08 17:35:36;;;;;;;8.25;3.05;;;;;;;8.83;71.31;100557.03;1881046;76;21069;-57
2022/02/08 17:45:57;;;;;;;5.72;2.98;;;;;;;8.79;71.32;100530.95;1881088;76;21062;-62
2022/02/08 17:48:22;;;;;;;6.35;2.40;;;;;;;8.79;71.42;100550.17;1880273;76;21098;-61
2022/02/08 17:50:52;;;;;;;7.75;2.98;;;;;;;8.81;71.45;100543.09;1881173;76;21479;-62
2022/02/08 17:53:22;;;;;;;4.83;2.87;;;;;;;8.83;71.41;100554.40;1881027;76;21023;-62
2022/02/08 17:55:51;;;;;;;5.53;3.00;;;;;;;8.85;71.38;100546.05;1881113;76;21536;-61